sensor_id;sensor_type;location;lat;lon;timestamp;P1;durP1;ratioP1;P2;durP2;ratioP2
54388;SDS011;40975;50.390;8.640;2022-09-09T00:03:49;1.25;;;0.80;;
54388;SDS011;40975;50.390;8.640;2022-09-09T00:06:19;3.47;;;0.77;;
54388;SDS011;40975;50.390;8.640;2022-09-09T00:11:38;1.70;;;0.50;;
54388;SDS011;40975;50.390;8.640;2022-09-09T00:14:13;4.38;;;0.80;;
54388;SDS011;40975;50.390;8.640;2022-09-09T00:16:46;1.10;;;0.52;;
54388;SDS011;40975;50.390;8.640;2022-09-09T00:19:23;2.97;;;0.60;;
54388;SDS011;40975;50.390;8.640;2022-09-09T00:21:58;2.70;;;0.70;;
54388;SDS011;40975;50.390;8.640;2022-09-09T00:24:43;3.00;;;0.50;;
54388;SDS011;40975;50.390;8.640;2022-09-09T00:27:14;3.10;;;0.52;;
54388;SDS011;40975;50.390;8.640;2022-09-09T00:29:48;0.80;;;0.40;;
54388;SDS011;40975;50.390;8.640;2022-09-09T00:32:20;2.55;;;0.50;;
54388;SDS011;40975;50.390;8.640;2022-09-09T00:34:53;2.70;;;0.93;;
54388;SDS011;40975;50.390;8.640;2022-09-09T00:37:24;0.50;;;0.47;;
54388;SDS011;40975;50.390;8.640;2022-09-09T00:39:51;1.75;;;0.50;;
54388;SDS011;40975;50.390;8.640;2022-09-09T00:42:40;2.28;;;0.70;;
54388;SDS011;40975;50.390;8.640;2022-09-09T00:45:17;2.70;;;0.70;;
54388;SDS011;40975;50.390;8.640;2022-09-09T00:47:45;3.75;;;0.80;;
54388;SDS011;40975;50.390;8.640;2022-09-09T00:53:36;2.92;;;0.52;;
54388;SDS011;40975;50.390;8.640;2022-09-09T00:56:18;2.70;;;0.50;;
54388;SDS011;40975;50.390;8.640;2022-09-09T00:58:58;1.88;;;0.60;;
54388;SDS011;40975;50.390;8.640;2022-09-09T01:01:30;3.97;;;0.70;;
54388;SDS011;40975;50.390;8.640;2022-09-09T01:03:56;1.42;;;0.30;;
54388;SDS011;40975;50.390;8.640;2022-09-09T01:06:29;2.22;;;0.60;;
54388;SDS011;40975;50.390;8.640;2022-09-09T01:17:11;2.15;;;0.40;;
54388;SDS011;40975;50.390;8.640;2022-09-09T01:20:04;1.75;;;0.40;;
54388;SDS011;40975;50.390;8.640;2022-09-09T01:22:58;3.17;;;0.63;;
54388;SDS011;40975;50.390;8.640;2022-09-09T01:28:37;2.55;;;0.70;;
54388;SDS011;40975;50.390;8.640;2022-09-09T01:33:41;5.22;;;0.60;;
54388;SDS011;40975;50.390;8.640;2022-09-09T01:38:47;1.33;;;0.45;;
54388;SDS011;40975;50.390;8.640;2022-09-09T01:44:10;3.30;;;0.55;;
54388;SDS011;40975;50.390;8.640;2022-09-09T01:46:38;1.67;;;0.60;;
54388;SDS011;40975;50.390;8.640;2022-09-09T01:49:07;1.02;;;0.50;;
54388;SDS011;40975;50.390;8.640;2022-09-09T01:51:33;2.78;;;0.50;;
54388;SDS011;40975;50.390;8.640;2022-09-09T01:54:03;2.35;;;0.57;;
54388;SDS011;40975;50.390;8.640;2022-09-09T02:05:51;3.90;;;0.60;;
54388;SDS011;40975;50.390;8.640;2022-09-09T02:08:44;1.27;;;0.50;;
54388;SDS011;40975;50.390;8.640;2022-09-09T02:11:19;2.38;;;1.15;;
54388;SDS011;40975;50.390;8.640;2022-09-09T02:13:54;2.20;;;0.50;;
54388;SDS011;40975;50.390;8.640;2022-09-09T02:16:34;0.60;;;0.30;;
54388;SDS011;40975;50.390;8.640;2022-09-09T02:19:06;2.65;;;0.60;;
54388;SDS011;40975;50.390;8.640;2022-09-09T02:21:53;0.85;;;0.50;;
54388;SDS011;40975;50.390;8.640;2022-09-09T02:24:21;2.45;;;0.70;;
54388;SDS011;40975;50.390;8.640;2022-09-09T02:26:55;1.27;;;0.50;;
54388;SDS011;40975;50.390;8.640;2022-09-09T02:29:31;1.98;;;0.55;;
54388;SDS011;40975;50.390;8.640;2022-09-09T02:32:02;1.75;;;0.55;;
54388;SDS011;40975;50.390;8.640;2022-09-09T02:34:36;1.15;;;0.50;;
54388;SDS011;40975;50.390;8.640;2022-09-09T02:37:08;1.38;;;0.40;;
54388;SDS011;40975;50.390;8.640;2022-09-09T02:39:35;2.47;;;0.50;;
54388;SDS011;40975;50.390;8.640;2022-09-09T02:42:03;1.90;;;0.65;;
54388;SDS011;40975;50.390;8.640;2022-09-09T02:44:30;3.35;;;0.57;;
54388;SDS011;40975;50.390;8.640;2022-09-09T02:47:10;2.92;;;0.68;;
54388;SDS011;40975;50.390;8.640;2022-09-09T02:50:02;1.40;;;0.60;;
54388;SDS011;40975;50.390;8.640;2022-09-09T02:55:31;2.05;;;0.70;;
54388;SDS011;40975;50.390;8.640;2022-09-09T02:58:10;1.15;;;0.80;;
54388;SDS011;40975;50.390;8.640;2022-09-09T03:00:48;2.03;;;0.70;;
54388;SDS011;40975;50.390;8.640;2022-09-09T03:03:17;1.33;;;0.55;;
54388;SDS011;40975;50.390;8.640;2022-09-09T03:05:46;2.20;;;0.60;;
54388;SDS011;40975;50.390;8.640;2022-09-09T03:08:12;1.55;;;0.60;;
54388;SDS011;40975;50.390;8.640;2022-09-09T03:10:41;2.50;;;0.70;;
54388;SDS011;40975;50.390;8.640;2022-09-09T03:13:06;2.38;;;0.77;;
54388;SDS011;40975;50.390;8.640;2022-09-09T03:15:37;1.15;;;0.52;;
54388;SDS011;40975;50.390;8.640;2022-09-09T03:18:04;3.50;;;0.60;;
54388;SDS011;40975;50.390;8.640;2022-09-09T03:20:29;4.13;;;1.00;;
54388;SDS011;40975;50.390;8.640;2022-09-09T03:22:56;2.20;;;0.63;;
54388;SDS011;40975;50.390;8.640;2022-09-09T03:25:22;4.00;;;0.63;;
54388;SDS011;40975;50.390;8.640;2022-09-09T03:27:52;0.88;;;0.50;;
54388;SDS011;40975;50.390;8.640;2022-09-09T03:30:21;1.25;;;0.68;;
54388;SDS011;40975;50.390;8.640;2022-09-09T03:32:47;1.48;;;0.70;;
54388;SDS011;40975;50.390;8.640;2022-09-09T03:35:13;2.85;;;0.50;;
54388;SDS011;40975;50.390;8.640;2022-09-09T03:37:38;6.53;;;0.93;;
54388;SDS011;40975;50.390;8.640;2022-09-09T03:40:04;3.45;;;0.70;;
54388;SDS011;40975;50.390;8.640;2022-09-09T03:42:29;2.20;;;0.80;;
54388;SDS011;40975;50.390;8.640;2022-09-09T03:44:56;1.95;;;0.70;;
54388;SDS011;40975;50.390;8.640;2022-09-09T03:47:23;2.55;;;0.65;;
54388;SDS011;40975;50.390;8.640;2022-09-09T03:49:53;2.55;;;0.90;;
54388;SDS011;40975;50.390;8.640;2022-09-09T03:52:18;1.45;;;0.75;;
54388;SDS011;40975;50.390;8.640;2022-09-09T03:54:44;5.20;;;1.20;;
54388;SDS011;40975;50.390;8.640;2022-09-09T03:57:10;1.20;;;0.60;;
54388;SDS011;40975;50.390;8.640;2022-09-09T03:59:36;3.15;;;1.45;;
54388;SDS011;40975;50.390;8.640;2022-09-09T04:02:02;2.25;;;0.70;;
54388;SDS011;40975;50.390;8.640;2022-09-09T04:04:28;6.25;;;0.98;;
54388;SDS011;40975;50.390;8.640;2022-09-09T04:06:54;2.70;;;1.42;;
54388;SDS011;40975;50.390;8.640;2022-09-09T04:09:19;1.40;;;0.90;;
54388;SDS011;40975;50.390;8.640;2022-09-09T04:11:46;1.80;;;0.95;;
54388;SDS011;40975;50.390;8.640;2022-09-09T04:14:13;3.85;;;0.90;;
54388;SDS011;40975;50.390;8.640;2022-09-09T04:16:39;5.65;;;1.70;;
54388;SDS011;40975;50.390;8.640;2022-09-09T04:19:10;5.85;;;1.08;;
54388;SDS011;40975;50.390;8.640;2022-09-09T04:21:40;3.63;;;0.80;;
54388;SDS011;40975;50.390;8.640;2022-09-09T04:24:07;2.33;;;0.80;;
54388;SDS011;40975;50.390;8.640;2022-09-09T04:26:34;2.15;;;0.93;;
54388;SDS011;40975;50.390;8.640;2022-09-09T04:29:01;2.13;;;1.02;;
54388;SDS011;40975;50.390;8.640;2022-09-09T04:31:27;6.18;;;1.38;;
54388;SDS011;40975;50.390;8.640;2022-09-09T04:33:55;3.88;;;1.00;;
54388;SDS011;40975;50.390;8.640;2022-09-09T04:36:21;2.72;;;0.98;;
54388;SDS011;40975;50.390;8.640;2022-09-09T04:38:48;2.65;;;1.08;;
54388;SDS011;40975;50.390;8.640;2022-09-09T04:41:14;5.03;;;0.95;;
54388;SDS011;40975;50.390;8.640;2022-09-09T04:43:43;3.03;;;0.90;;
54388;SDS011;40975;50.390;8.640;2022-09-09T04:46:08;3.55;;;0.75;;
54388;SDS011;40975;50.390;8.640;2022-09-09T04:48:34;2.63;;;0.80;;
54388;SDS011;40975;50.390;8.640;2022-09-09T04:51:01;2.33;;;1.05;;
54388;SDS011;40975;50.390;8.640;2022-09-09T04:53:31;0.80;;;0.70;;
54388;SDS011;40975;50.390;8.640;2022-09-09T04:58:38;4.07;;;0.88;;
54388;SDS011;40975;50.390;8.640;2022-09-09T05:01:13;4.03;;;1.00;;
54388;SDS011;40975;50.390;8.640;2022-09-09T05:03:40;2.55;;;1.48;;
54388;SDS011;40975;50.390;8.640;2022-09-09T05:06:09;2.08;;;0.90;;
54388;SDS011;40975;50.390;8.640;2022-09-09T05:08:36;2.38;;;1.05;;
54388;SDS011;40975;50.390;8.640;2022-09-09T05:11:03;2.20;;;0.90;;
54388;SDS011;40975;50.390;8.640;2022-09-09T05:13:41;2.45;;;1.05;;
54388;SDS011;40975;50.390;8.640;2022-09-09T05:16:07;2.05;;;1.10;;
54388;SDS011;40975;50.390;8.640;2022-09-09T05:18:35;4.70;;;1.10;;
54388;SDS011;40975;50.390;8.640;2022-09-09T05:21:00;2.63;;;1.08;;
54388;SDS011;40975;50.390;8.640;2022-09-09T05:23:26;4.50;;;1.83;;
54388;SDS011;40975;50.390;8.640;2022-09-09T05:25:56;4.10;;;1.38;;
54388;SDS011;40975;50.390;8.640;2022-09-09T05:28:23;4.60;;;1.40;;
54388;SDS011;40975;50.390;8.640;2022-09-09T05:31:02;4.25;;;1.45;;
54388;SDS011;40975;50.390;8.640;2022-09-09T05:33:32;2.22;;;1.20;;
54388;SDS011;40975;50.390;8.640;2022-09-09T05:35:58;2.72;;;1.30;;
54388;SDS011;40975;50.390;8.640;2022-09-09T05:38:25;1.17;;;1.08;;
54388;SDS011;40975;50.390;8.640;2022-09-09T05:40:51;2.47;;;1.20;;
54388;SDS011;40975;50.390;8.640;2022-09-09T05:43:18;1.85;;;1.00;;
54388;SDS011;40975;50.390;8.640;2022-09-09T05:45:45;3.03;;;1.00;;
54388;SDS011;40975;50.390;8.640;2022-09-09T05:48:27;4.57;;;1.48;;
54388;SDS011;40975;50.390;8.640;2022-09-09T05:50:54;3.53;;;1.23;;
54388;SDS011;40975;50.390;8.640;2022-09-09T05:53:20;3.55;;;1.17;;
54388;SDS011;40975;50.390;8.640;2022-09-09T05:55:45;2.72;;;1.13;;
54388;SDS011;40975;50.390;8.640;2022-09-09T05:58:11;1.40;;;1.00;;
54388;SDS011;40975;50.390;8.640;2022-09-09T06:00:36;1.95;;;0.93;;
54388;SDS011;40975;50.390;8.640;2022-09-09T06:03:03;1.88;;;1.10;;
54388;SDS011;40975;50.390;8.640;2022-09-09T06:05:29;2.20;;;1.20;;
54388;SDS011;40975;50.390;8.640;2022-09-09T06:07:55;2.80;;;1.13;;
54388;SDS011;40975;50.390;8.640;2022-09-09T06:10:23;3.25;;;1.05;;
54388;SDS011;40975;50.390;8.640;2022-09-09T06:12:48;4.75;;;1.00;;
54388;SDS011;40975;50.390;8.640;2022-09-09T06:15:13;7.93;;;1.20;;
54388;SDS011;40975;50.390;8.640;2022-09-09T06:17:39;3.78;;;1.15;;
54388;SDS011;40975;50.390;8.640;2022-09-09T06:20:04;6.32;;;1.33;;
54388;SDS011;40975;50.390;8.640;2022-09-09T06:22:31;5.72;;;1.85;;
54388;SDS011;40975;50.390;8.640;2022-09-09T06:24:57;1.60;;;0.80;;
54388;SDS011;40975;50.390;8.640;2022-09-09T06:27:22;2.92;;;1.00;;
54388;SDS011;40975;50.390;8.640;2022-09-09T06:29:47;3.22;;;1.10;;
54388;SDS011;40975;50.390;8.640;2022-09-09T06:32:13;1.27;;;0.90;;
54388;SDS011;40975;50.390;8.640;2022-09-09T06:34:39;1.90;;;0.80;;
54388;SDS011;40975;50.390;8.640;2022-09-09T06:37:05;2.35;;;0.73;;
54388;SDS011;40975;50.390;8.640;2022-09-09T06:39:37;2.72;;;1.10;;
54388;SDS011;40975;50.390;8.640;2022-09-09T06:42:02;2.78;;;1.10;;
54388;SDS011;40975;50.390;8.640;2022-09-09T06:44:47;2.50;;;0.90;;
54388;SDS011;40975;50.390;8.640;2022-09-09T06:47:42;2.90;;;1.30;;
54388;SDS011;40975;50.390;8.640;2022-09-09T06:50:08;1.42;;;0.77;;
54388;SDS011;40975;50.390;8.640;2022-09-09T06:52:34;4.03;;;1.10;;
54388;SDS011;40975;50.390;8.640;2022-09-09T06:55:00;2.05;;;0.93;;
54388;SDS011;40975;50.390;8.640;2022-09-09T06:57:25;3.50;;;1.20;;
54388;SDS011;40975;50.390;8.640;2022-09-09T06:59:51;1.00;;;1.00;;
54388;SDS011;40975;50.390;8.640;2022-09-09T07:02:17;3.55;;;0.90;;
54388;SDS011;40975;50.390;8.640;2022-09-09T07:04:43;2.05;;;0.82;;
54388;SDS011;40975;50.390;8.640;2022-09-09T07:07:09;3.17;;;1.15;;
54388;SDS011;40975;50.390;8.640;2022-09-09T07:09:37;3.28;;;1.08;;
54388;SDS011;40975;50.390;8.640;2022-09-09T07:12:03;1.33;;;1.00;;
54388;SDS011;40975;50.390;8.640;2022-09-09T07:14:32;2.65;;;1.15;;
54388;SDS011;40975;50.390;8.640;2022-09-09T07:17:02;2.20;;;1.40;;
54388;SDS011;40975;50.390;8.640;2022-09-09T07:19:33;2.58;;;1.02;;
54388;SDS011;40975;50.390;8.640;2022-09-09T07:22:01;1.98;;;0.98;;
54388;SDS011;40975;50.390;8.640;2022-09-09T07:24:28;1.48;;;0.80;;
54388;SDS011;40975;50.390;8.640;2022-09-09T07:26:55;2.35;;;0.80;;
54388;SDS011;40975;50.390;8.640;2022-09-09T07:29:20;2.80;;;0.80;;
54388;SDS011;40975;50.390;8.640;2022-09-09T07:31:46;2.55;;;0.98;;
54388;SDS011;40975;50.390;8.640;2022-09-09T07:34:16;2.58;;;1.45;;
54388;SDS011;40975;50.390;8.640;2022-09-09T07:36:42;3.15;;;1.17;;
54388;SDS011;40975;50.390;8.640;2022-09-09T07:39:11;6.75;;;0.90;;
54388;SDS011;40975;50.390;8.640;2022-09-09T07:44:25;1.70;;;0.90;;
54388;SDS011;40975;50.390;8.640;2022-09-09T07:47:00;2.28;;;1.20;;
54388;SDS011;40975;50.390;8.640;2022-09-09T07:49:32;1.30;;;1.05;;
54388;SDS011;40975;50.390;8.640;2022-09-09T07:52:00;3.60;;;1.38;;
54388;SDS011;40975;50.390;8.640;2022-09-09T07:54:26;4.40;;;1.20;;
54388;SDS011;40975;50.390;8.640;2022-09-09T07:56:52;3.50;;;1.30;;
54388;SDS011;40975;50.390;8.640;2022-09-09T07:59:20;4.60;;;1.85;;
54388;SDS011;40975;50.390;8.640;2022-09-09T08:01:49;3.25;;;1.80;;
54388;SDS011;40975;50.390;8.640;2022-09-09T08:04:20;5.13;;;2.10;;
54388;SDS011;40975;50.390;8.640;2022-09-09T08:06:48;3.50;;;2.08;;
54388;SDS011;40975;50.390;8.640;2022-09-09T08:09:19;2.50;;;1.30;;
54388;SDS011;40975;50.390;8.640;2022-09-09T08:11:46;5.95;;;1.55;;
54388;SDS011;40975;50.390;8.640;2022-09-09T08:14:12;4.35;;;1.42;;
54388;SDS011;40975;50.390;8.640;2022-09-09T08:16:40;2.20;;;1.48;;
54388;SDS011;40975;50.390;8.640;2022-09-09T08:19:08;3.85;;;1.42;;
54388;SDS011;40975;50.390;8.640;2022-09-09T08:21:34;3.25;;;1.20;;
54388;SDS011;40975;50.390;8.640;2022-09-09T08:24:02;3.90;;;1.75;;
54388;SDS011;40975;50.390;8.640;2022-09-09T08:26:28;3.28;;;1.33;;
54388;SDS011;40975;50.390;8.640;2022-09-09T08:28:56;4.22;;;1.90;;
54388;SDS011;40975;50.390;8.640;2022-09-09T08:31:25;4.72;;;1.30;;
54388;SDS011;40975;50.390;8.640;2022-09-09T08:33:54;1.10;;;1.00;;
54388;SDS011;40975;50.390;8.640;2022-09-09T08:36:21;3.80;;;1.15;;
54388;SDS011;40975;50.390;8.640;2022-09-09T08:38:52;3.73;;;1.27;;
54388;SDS011;40975;50.390;8.640;2022-09-09T08:44:26;2.97;;;1.20;;
54388;SDS011;40975;50.390;8.640;2022-09-09T08:47:21;2.90;;;1.75;;
54388;SDS011;40975;50.390;8.640;2022-09-09T08:50:29;2.90;;;1.17;;
54388;SDS011;40975;50.390;8.640;2022-09-09T08:55:48;2.60;;;1.80;;
54388;SDS011;40975;50.390;8.640;2022-09-09T08:58:19;2.78;;;0.90;;
54388;SDS011;40975;50.390;8.640;2022-09-09T09:09:02;1.75;;;0.98;;
54388;SDS011;40975;50.390;8.640;2022-09-09T09:11:35;2.88;;;1.17;;
54388;SDS011;40975;50.390;8.640;2022-09-09T09:14:03;4.05;;;1.20;;
54388;SDS011;40975;50.390;8.640;2022-09-09T09:19:22;3.17;;;1.42;;
54388;SDS011;40975;50.390;8.640;2022-09-09T09:27:16;3.33;;;0.93;;
54388;SDS011;40975;50.390;8.640;2022-09-09T09:29:51;4.78;;;0.95;;
54388;SDS011;40975;50.390;8.640;2022-09-09T09:32:22;1.80;;;0.80;;
54388;SDS011;40975;50.390;8.640;2022-09-09T09:34:51;1.42;;;0.98;;
54388;SDS011;40975;50.390;8.640;2022-09-09T09:37:29;1.63;;;0.98;;
54388;SDS011;40975;50.390;8.640;2022-09-09T09:40:08;1.02;;;0.80;;
54388;SDS011;40975;50.390;8.640;2022-09-09T09:42:35;4.10;;;0.60;;
54388;SDS011;40975;50.390;8.640;2022-09-09T09:45:16;3.05;;;1.10;;
54388;SDS011;40975;50.390;8.640;2022-09-09T09:48:03;2.75;;;0.90;;
54388;SDS011;40975;50.390;8.640;2022-09-09T09:50:32;2.72;;;1.13;;
54388;SDS011;40975;50.390;8.640;2022-09-09T09:52:59;1.40;;;0.77;;
54388;SDS011;40975;50.390;8.640;2022-09-09T09:55:29;2.72;;;0.88;;
54388;SDS011;40975;50.390;8.640;2022-09-09T09:58:06;1.77;;;0.60;;
54388;SDS011;40975;50.390;8.640;2022-09-09T10:00:46;2.00;;;1.02;;
54388;SDS011;40975;50.390;8.640;2022-09-09T10:03:25;5.75;;;1.00;;
54388;SDS011;40975;50.390;8.640;2022-09-09T10:06:04;1.98;;;0.70;;
54388;SDS011;40975;50.390;8.640;2022-09-09T10:08:33;4.18;;;0.85;;
54388;SDS011;40975;50.390;8.640;2022-09-09T10:11:17;1.67;;;1.00;;
54388;SDS011;40975;50.390;8.640;2022-09-09T10:14:16;2.90;;;0.70;;
54388;SDS011;40975;50.390;8.640;2022-09-09T10:19:35;3.00;;;0.90;;
54388;SDS011;40975;50.390;8.640;2022-09-09T10:22:04;2.05;;;0.80;;
54388;SDS011;40975;50.390;8.640;2022-09-09T10:24:51;1.67;;;1.23;;
54388;SDS011;40975;50.390;8.640;2022-09-09T10:30:21;3.45;;;1.02;;
54388;SDS011;40975;50.390;8.640;2022-09-09T10:32:49;0.98;;;0.63;;
54388;SDS011;40975;50.390;8.640;2022-09-09T10:35:35;1.55;;;0.57;;
54388;SDS011;40975;50.390;8.640;2022-09-09T10:45:57;4.22;;;1.20;;
54388;SDS011;40975;50.390;8.640;2022-09-09T10:48:46;4.68;;;0.90;;
54388;SDS011;40975;50.390;8.640;2022-09-09T10:51:31;2.42;;;0.43;;
54388;SDS011;40975;50.390;8.640;2022-09-09T10:56:50;3.50;;;0.60;;
54388;SDS011;40975;50.390;8.640;2022-09-09T10:59:23;3.72;;;1.17;;
54388;SDS011;40975;50.390;8.640;2022-09-09T11:04:21;1.25;;;0.50;;
54388;SDS011;40975;50.390;8.640;2022-09-09T11:06:52;1.40;;;0.50;;
54388;SDS011;40975;50.390;8.640;2022-09-09T11:09:27;0.98;;;0.50;;
54388;SDS011;40975;50.390;8.640;2022-09-09T11:11:56;4.70;;;1.02;;
54388;SDS011;40975;50.390;8.640;2022-09-09T11:17:15;5.90;;;1.00;;
54388;SDS011;40975;50.390;8.640;2022-09-09T11:19:46;3.13;;;0.65;;
54388;SDS011;40975;50.390;8.640;2022-09-09T11:22:15;1.92;;;0.40;;
54388;SDS011;40975;50.390;8.640;2022-09-09T11:24:59;3.97;;;0.80;;
54388;SDS011;40975;50.390;8.640;2022-09-09T11:27:56;2.47;;;0.55;;
54388;SDS011;40975;50.390;8.640;2022-09-09T11:30:56;0.95;;;0.52;;
54388;SDS011;40975;50.390;8.640;2022-09-09T11:36:32;2.72;;;0.82;;
54388;SDS011;40975;50.390;8.640;2022-09-09T11:44:38;2.63;;;1.03;;
54388;SDS011;40975;50.390;8.640;2022-09-09T11:47:03;4.60;;;1.10;;
54388;SDS011;40975;50.390;8.640;2022-09-09T11:49:47;2.28;;;0.85;;
54388;SDS011;40975;50.390;8.640;2022-09-09T11:53:02;1.38;;;0.60;;
54388;SDS011;40975;50.390;8.640;2022-09-09T11:57:58;0.77;;;0.50;;
54388;SDS011;40975;50.390;8.640;2022-09-09T12:00:44;1.40;;;0.57;;
54388;SDS011;40975;50.390;8.640;2022-09-09T12:08:52;2.70;;;0.50;;
54388;SDS011;40975;50.390;8.640;2022-09-09T12:11:26;2.85;;;1.30;;
54388;SDS011;40975;50.390;8.640;2022-09-09T12:13:54;2.40;;;0.70;;
54388;SDS011;40975;50.390;8.640;2022-09-09T12:16:33;3.55;;;0.60;;
54388;SDS011;40975;50.390;8.640;2022-09-09T12:19:13;3.60;;;0.90;;
54388;SDS011;40975;50.390;8.640;2022-09-09T12:27:27;1.65;;;0.40;;
54388;SDS011;40975;50.390;8.640;2022-09-09T12:32:27;2.30;;;0.50;;
54388;SDS011;40975;50.390;8.640;2022-09-09T12:35:02;1.05;;;0.40;;
54388;SDS011;40975;50.390;8.640;2022-09-09T12:37:48;2.15;;;0.60;;
54388;SDS011;40975;50.390;8.640;2022-09-09T12:40:20;1.52;;;0.40;;
54388;SDS011;40975;50.390;8.640;2022-09-09T12:42:48;2.95;;;0.57;;
54388;SDS011;40975;50.390;8.640;2022-09-09T12:45:17;2.30;;;0.60;;
54388;SDS011;40975;50.390;8.640;2022-09-09T12:47:49;2.97;;;0.50;;
54388;SDS011;40975;50.390;8.640;2022-09-09T12:52:51;1.20;;;0.38;;
54388;SDS011;40975;50.390;8.640;2022-09-09T12:55:20;1.73;;;0.50;;
54388;SDS011;40975;50.390;8.640;2022-09-09T12:57:50;4.22;;;0.60;;
54388;SDS011;40975;50.390;8.640;2022-09-09T13:00:21;1.75;;;0.45;;
54388;SDS011;40975;50.390;8.640;2022-09-09T13:02:50;4.40;;;0.80;;
54388;SDS011;40975;50.390;8.640;2022-09-09T13:05:19;2.25;;;0.70;;
54388;SDS011;40975;50.390;8.640;2022-09-09T13:07:46;4.00;;;0.60;;
54388;SDS011;40975;50.390;8.640;2022-09-09T13:10:13;0.73;;;0.43;;
54388;SDS011;40975;50.390;8.640;2022-09-09T13:12:40;2.67;;;0.60;;
54388;SDS011;40975;50.390;8.640;2022-09-09T13:15:26;4.22;;;0.73;;
54388;SDS011;40975;50.390;8.640;2022-09-09T13:17:55;3.92;;;0.50;;
54388;SDS011;40975;50.390;8.640;2022-09-09T13:20:22;3.30;;;0.80;;
54388;SDS011;40975;50.390;8.640;2022-09-09T13:22:50;1.38;;;0.43;;
54388;SDS011;40975;50.390;8.640;2022-09-09T13:28:20;5.05;;;0.82;;
54388;SDS011;40975;50.390;8.640;2022-09-09T13:31:00;2.15;;;0.70;;
54388;SDS011;40975;50.390;8.640;2022-09-09T13:33:38;2.97;;;1.50;;
54388;SDS011;40975;50.390;8.640;2022-09-09T13:36:07;2.83;;;0.60;;
54388;SDS011;40975;50.390;8.640;2022-09-09T13:38:52;5.07;;;0.77;;
54388;SDS011;40975;50.390;8.640;2022-09-09T13:41:20;0.65;;;0.40;;
54388;SDS011;40975;50.390;8.640;2022-09-09T13:43:48;3.30;;;0.70;;
54388;SDS011;40975;50.390;8.640;2022-09-09T13:49:02;2.78;;;0.57;;
54388;SDS011;40975;50.390;8.640;2022-09-09T13:51:43;1.92;;;0.40;;
54388;SDS011;40975;50.390;8.640;2022-09-09T13:54:12;2.25;;;0.90;;
54388;SDS011;40975;50.390;8.640;2022-09-09T13:56:40;4.03;;;0.80;;
54388;SDS011;40975;50.390;8.640;2022-09-09T13:59:09;2.72;;;0.75;;
54388;SDS011;40975;50.390;8.640;2022-09-09T14:01:37;3.97;;;1.02;;
54388;SDS011;40975;50.390;8.640;2022-09-09T14:04:03;2.65;;;0.43;;
54388;SDS011;40975;50.390;8.640;2022-09-09T14:06:30;3.67;;;0.60;;
54388;SDS011;40975;50.390;8.640;2022-09-09T14:08:57;2.15;;;0.50;;
54388;SDS011;40975;50.390;8.640;2022-09-09T14:11:22;2.03;;;0.50;;
54388;SDS011;40975;50.390;8.640;2022-09-09T14:13:48;2.03;;;0.50;;
54388;SDS011;40975;50.390;8.640;2022-09-09T14:16:15;1.45;;;0.45;;
54388;SDS011;40975;50.390;8.640;2022-09-09T14:18:42;1.10;;;0.43;;
54388;SDS011;40975;50.390;8.640;2022-09-09T14:21:09;2.00;;;0.50;;
54388;SDS011;40975;50.390;8.640;2022-09-09T14:23:34;1.08;;;0.50;;
54388;SDS011;40975;50.390;8.640;2022-09-09T14:25:59;1.65;;;0.30;;
54388;SDS011;40975;50.390;8.640;2022-09-09T14:28:25;2.03;;;0.63;;
54388;SDS011;40975;50.390;8.640;2022-09-09T14:30:50;2.42;;;0.30;;
54388;SDS011;40975;50.390;8.640;2022-09-09T14:33:15;1.60;;;0.32;;
54388;SDS011;40975;50.390;8.640;2022-09-09T14:35:42;3.83;;;0.40;;
54388;SDS011;40975;50.390;8.640;2022-09-09T14:38:09;1.63;;;0.50;;
54388;SDS011;40975;50.390;8.640;2022-09-09T14:40:35;1.83;;;0.40;;
54388;SDS011;40975;50.390;8.640;2022-09-09T14:43:02;4.80;;;0.63;;
54388;SDS011;40975;50.390;8.640;2022-09-09T14:45:28;1.85;;;0.40;;
54388;SDS011;40975;50.390;8.640;2022-09-09T14:47:54;4.10;;;0.68;;
54388;SDS011;40975;50.390;8.640;2022-09-09T14:50:20;2.55;;;0.68;;
54388;SDS011;40975;50.390;8.640;2022-09-09T14:52:46;1.85;;;0.40;;
54388;SDS011;40975;50.390;8.640;2022-09-09T14:55:12;4.47;;;0.50;;
54388;SDS011;40975;50.390;8.640;2022-09-09T14:57:38;1.48;;;0.50;;
54388;SDS011;40975;50.390;8.640;2022-09-09T15:00:05;3.45;;;0.63;;
54388;SDS011;40975;50.390;8.640;2022-09-09T15:02:31;2.17;;;0.68;;
54388;SDS011;40975;50.390;8.640;2022-09-09T15:04:57;1.75;;;0.25;;
54388;SDS011;40975;50.390;8.640;2022-09-09T15:07:23;1.85;;;0.50;;
54388;SDS011;40975;50.390;8.640;2022-09-09T15:09:49;4.28;;;0.50;;
54388;SDS011;40975;50.390;8.640;2022-09-09T15:12:14;4.88;;;0.70;;
54388;SDS011;40975;50.390;8.640;2022-09-09T15:14:40;4.75;;;0.75;;
54388;SDS011;40975;50.390;8.640;2022-09-09T15:17:05;1.02;;;0.32;;
54388;SDS011;40975;50.390;8.640;2022-09-09T15:19:30;2.05;;;0.60;;
54388;SDS011;40975;50.390;8.640;2022-09-09T15:21:57;0.85;;;0.52;;
54388;SDS011;40975;50.390;8.640;2022-09-09T15:24:24;1.13;;;0.30;;
54388;SDS011;40975;50.390;8.640;2022-09-09T15:26:50;2.22;;;0.60;;
54388;SDS011;40975;50.390;8.640;2022-09-09T15:29:16;1.33;;;0.40;;
54388;SDS011;40975;50.390;8.640;2022-09-09T15:31:41;1.60;;;0.40;;
54388;SDS011;40975;50.390;8.640;2022-09-09T15:34:07;2.88;;;0.43;;
54388;SDS011;40975;50.390;8.640;2022-09-09T15:36:33;1.33;;;0.20;;
54388;SDS011;40975;50.390;8.640;2022-09-09T15:39:01;2.72;;;0.95;;
54388;SDS011;40975;50.390;8.640;2022-09-09T15:41:28;1.95;;;0.38;;
54388;SDS011;40975;50.390;8.640;2022-09-09T15:43:54;0.93;;;0.30;;
54388;SDS011;40975;50.390;8.640;2022-09-09T15:48:58;1.67;;;0.40;;
54388;SDS011;40975;50.390;8.640;2022-09-09T15:51:31;0.98;;;0.43;;
54388;SDS011;40975;50.390;8.640;2022-09-09T15:53:58;0.98;;;0.38;;
54388;SDS011;40975;50.390;8.640;2022-09-09T15:56:25;2.05;;;0.30;;
54388;SDS011;40975;50.390;8.640;2022-09-09T15:58:52;4.97;;;0.50;;
54388;SDS011;40975;50.390;8.640;2022-09-09T16:01:18;3.03;;;0.50;;
54388;SDS011;40975;50.390;8.640;2022-09-09T16:03:44;2.10;;;0.40;;
54388;SDS011;40975;50.390;8.640;2022-09-09T16:06:11;2.55;;;0.52;;
54388;SDS011;40975;50.390;8.640;2022-09-09T16:08:42;2.22;;;0.40;;
54388;SDS011;40975;50.390;8.640;2022-09-09T16:13:42;0.98;;;0.25;;
54388;SDS011;40975;50.390;8.640;2022-09-09T16:16:09;0.95;;;0.25;;
54388;SDS011;40975;50.390;8.640;2022-09-09T16:18:37;16.35;;;0.77;;
54388;SDS011;40975;50.390;8.640;2022-09-09T16:21:05;2.17;;;0.43;;
54388;SDS011;40975;50.390;8.640;2022-09-09T16:23:33;2.05;;;0.80;;
54388;SDS011;40975;50.390;8.640;2022-09-09T16:25:59;2.15;;;0.55;;
54388;SDS011;40975;50.390;8.640;2022-09-09T16:28:25;2.67;;;0.43;;
54388;SDS011;40975;50.390;8.640;2022-09-09T16:30:50;0.88;;;0.40;;
54388;SDS011;40975;50.390;8.640;2022-09-09T16:33:16;2.97;;;0.60;;
54388;SDS011;40975;50.390;8.640;2022-09-09T16:35:42;1.20;;;0.40;;
54388;SDS011;40975;50.390;8.640;2022-09-09T16:38:07;1.40;;;0.35;;
54388;SDS011;40975;50.390;8.640;2022-09-09T16:40:34;1.02;;;0.30;;
54388;SDS011;40975;50.390;8.640;2022-09-09T16:43:00;2.30;;;0.40;;
54388;SDS011;40975;50.390;8.640;2022-09-09T16:45:26;1.85;;;0.40;;
54388;SDS011;40975;50.390;8.640;2022-09-09T16:47:51;1.10;;;0.35;;
54388;SDS011;40975;50.390;8.640;2022-09-09T16:50:17;2.03;;;0.40;;
54388;SDS011;40975;50.390;8.640;2022-09-09T16:52:43;2.65;;;0.50;;
54388;SDS011;40975;50.390;8.640;2022-09-09T16:55:08;2.30;;;0.60;;
54388;SDS011;40975;50.390;8.640;2022-09-09T16:57:34;6.20;;;0.60;;
54388;SDS011;40975;50.390;8.640;2022-09-09T17:00:00;1.30;;;0.68;;
54388;SDS011;40975;50.390;8.640;2022-09-09T17:02:26;0.50;;;0.40;;
54388;SDS011;40975;50.390;8.640;2022-09-09T17:04:51;5.60;;;0.50;;
54388;SDS011;40975;50.390;8.640;2022-09-09T17:07:17;2.65;;;0.50;;
54388;SDS011;40975;50.390;8.640;2022-09-09T17:09:44;1.92;;;0.50;;
54388;SDS011;40975;50.390;8.640;2022-09-09T17:12:10;0.50;;;0.30;;
54388;SDS011;40975;50.390;8.640;2022-09-09T17:14:37;2.38;;;0.73;;